Time;durP1;ratioP1;P1;durP2;ratioP2;P2;SDS_P1;SDS_P2;PMS_P1;PMS_P2;Temp;Humidity;BMP_temperature;BMP_pressure;BME280_temperature;BME280_humidity;BME280_pressure;Samples;Min_cycle;Max_cycle;Signal;HPM_P1;HPM_P2
2021/08/24 00:00:54;;;;;;;27.02;14.05;;;;;;;19.10;81.32;101195.16;1824068;79;21457;-61
2021/08/24 00:03:23;;;;;;;35.20;14.78;;;;;;;19.11;81.32;101199.55;1824162;78;21134;-61
2021/08/24 00:05:52;;;;;;;28.05;13.45;;;;;;;19.09;81.29;101193.47;1824000;79;21613;-62
2021/08/24 00:08:21;;;;;;;26.55;12.73;;;;;;;19.08;81.50;101187.73;1824067;79;21090;-61
2021/08/24 00:10:52;;;;;;;27.85;13.22;;;;;;;19.07;81.36;101196.23;1824166;78;21133;-61
2021/08/24 00:13:22;;;;;;;26.57;13.25;;;;;;;19.07;81.34;101192.69;1793031;80;21525;-61
2021/08/24 00:15:52;;;;;;;22.37;12.40;;;;;;;19.06;81.28;101191.84;1815020;78;21532;-62
2021/08/24 00:18:21;;;;;;;28.90;14.05;;;;;;;19.05;81.24;101189.27;1815219;79;21573;-61
2021/08/24 00:20:53;;;;;;;32.05;16.00;;;;;;;19.03;81.42;101188.06;1815129;79;21632;-61
2021/08/24 00:23:24;;;;;;;35.03;15.65;;;;;;;19.01;81.51;101197.11;1815146;79;21129;-61
2021/08/24 00:25:55;;;;;;;26.07;14.43;;;;;;;18.99;81.63;101184.36;1815065;79;21591;-61
2021/08/24 00:28:24;;;;;;;26.55;13.95;;;;;;;18.98;81.87;101189.30;1815099;79;21062;-61
2021/08/24 00:30:53;;;;;;;29.00;15.25;;;;;;;18.97;81.68;101179.61;1815084;79;21589;-61
2021/08/24 00:33:23;;;;;;;30.97;14.25;;;;;;;18.96;81.60;101185.43;1815112;79;21655;-61
2021/08/24 00:35:52;;;;;;;22.52;11.73;;;;;;;18.93;81.70;101188.30;1815121;79;21580;-61
2021/08/24 00:38:24;;;;;;;30.77;15.88;;;;;;;18.92;81.70;101191.06;1815127;79;21510;-61
2021/08/24 00:40:58;;;;;;;33.23;15.85;;;;;;;18.88;81.63;101191.75;1815101;79;21137;-62
2021/08/24 00:43:28;;;;;;;36.93;15.10;;;;;;;18.84;81.72;101193.77;1815119;79;21222;-61
2021/08/24 00:46:00;;;;;;;34.43;14.75;;;;;;;18.82;81.68;101201.02;1815234;79;21058;-61
2021/08/24 00:48:33;;;;;;;29.05;14.85;;;;;;;18.80;81.79;101195.39;1813865;79;21266;-61
2021/08/24 00:51:02;;;;;;;36.58;14.47;;;;;;;18.77;81.87;101199.09;1815207;79;21568;-61
2021/08/24 00:53:33;;;;;;;39.30;14.33;;;;;;;18.76;81.79;101201.40;1814973;79;21139;-62
2021/08/24 00:56:05;;;;;;;36.13;15.10;;;;;;;18.75;81.79;101200.16;1815269;79;21574;-61
2021/08/24 00:58:35;;;;;;;39.78;14.78;;;;;;;18.72;81.85;101194.56;1815130;79;21067;-61
2021/08/24 01:01:04;;;;;;;39.45;15.08;;;;;;;18.71;81.96;101203.51;1815053;79;21580;-61
2021/08/24 01:03:38;;;;;;;36.05;15.40;;;;;;;18.70;81.92;101197.78;1815088;79;21083;-61
2021/08/24 01:06:09;;;;;;;34.05;15.50;;;;;;;18.68;82.01;101196.58;1815067;79;21083;-61
2021/08/24 01:09:14;;;;;;;25.62;13.55;;;;;;;18.67;82.09;101196.67;1814336;79;21168;-61
2021/08/24 01:11:58;;;;;;;33.42;14.75;;;;;;;18.65;82.31;101193.25;1792357;80;21151;-61
2021/08/24 01:14:38;;;;;;;26.10;13.80;;;;;;;18.59;82.57;101186.97;1812714;79;21141;-62
2021/08/24 01:17:15;;;;;;;27.10;13.78;;;;;;;18.55;82.90;101189.47;1815069;79;21099;-61
2021/08/24 01:20:02;;;;;;;26.95;13.88;;;;;;;18.50;83.19;101178.63;1815164;79;21039;-61
2021/08/24 01:22:49;;;;;;;26.45;14.43;;;;;;;18.49;83.25;101192.91;1758536;79;21185;-62
2021/08/24 01:25:36;;;;;;;25.37;14.05;;;;;;;18.46;83.37;101174.46;1813635;79;21103;-61
2021/08/24 01:28:14;;;;;;;26.20;14.35;;;;;;;18.46;83.44;101178.46;1815156;79;21083;-61
2021/08/24 01:31:16;;;;;;;33.48;15.43;;;;;;;18.45;83.67;101171.41;1815186;79;21083;-61
2021/08/24 01:34:11;;;;;;;32.98;16.90;;;;;;;18.45;83.54;101178.07;1815089;79;21075;-61
2021/08/24 01:37:06;;;;;;;27.25;14.18;;;;;;;18.47;83.25;101174.82;1815099;79;21059;-61
2021/08/24 01:39:44;;;;;;;23.50;14.15;;;;;;;18.46;83.09;101175.80;1814955;79;21530;-61
2021/08/24 01:42:15;;;;;;;24.92;14.18;;;;;;;18.45;83.05;101171.89;1813498;79;21481;-61
2021/08/24 01:45:04;;;;;;;25.75;15.75;;;;;;;18.44;83.16;101172.83;1815142;79;21080;-61
2021/08/24 01:47:56;;;;;;;29.87;21.17;;;;;;;18.41;83.06;101171.23;1815174;79;21059;-61
2021/08/24 01:50:34;;;;;;;45.08;27.98;;;;;;;18.38;83.03;101180.75;1815290;79;21544;-61
2021/08/24 01:53:23;;;;;;;28.15;16.48;;;;;;;18.34;83.22;101180.58;1815160;79;21125;-61
2021/08/24 01:55:55;;;;;;;25.82;14.40;;;;;;;18.30;83.39;101179.08;1814905;79;21087;-61
2021/08/24 01:58:48;;;;;;;29.50;13.98;;;;;;;18.27;83.65;101183.27;1815019;79;21146;-61
2021/08/24 02:01:20;;;;;;;31.55;14.65;;;;;;;18.24;83.75;101180.78;1815287;79;21091;-61
2021/08/24 02:03:55;;;;;;;23.95;12.50;;;;;;;18.22;83.63;101181.36;1815242;79;21467;-60
2021/08/24 02:06:38;;;;;;;29.72;13.10;;;;;;;18.19;83.61;101184.25;1815182;79;21603;-62
2021/08/24 02:09:08;;;;;;;;;;;;;;;18.14;83.55;101186.70;1817722;79;21071;-61
2021/08/24 02:11:37;;;;;;;27.00;13.55;;;;;;;18.10;83.57;101188.34;1815184;79;20121;-61
2021/08/24 02:14:09;;;;;;;24.90;14.53;;;;;;;18.07;83.50;101189.86;1815170;79;21562;-61
2021/08/24 02:16:38;;;;;;;24.40;13.72;;;;;;;18.05;83.84;101191.28;1815216;79;21505;-61
2021/08/24 02:19:10;;;;;;;33.60;17.37;;;;;;;18.06;83.73;101186.84;1797355;79;21511;-61
2021/08/24 02:21:47;;;;;;;31.40;15.18;;;;;;;18.07;83.66;101194.70;1795154;80;21576;-61
2021/08/24 02:24:19;;;;;;;32.35;15.83;;;;;;;18.07;83.80;101197.37;1795148;79;21530;-61
2021/08/24 02:26:50;;;;;;;32.70;15.85;;;;;;;18.06;83.82;101195.67;1795139;80;21092;-61
2021/08/24 02:29:19;;;;;;;24.80;14.63;;;;;;;18.07;83.96;101196.52;1795240;80;21080;-61
2021/08/24 02:32:09;;;;;;;27.02;14.13;;;;;;;18.06;83.96;101197.01;1795045;80;21546;-61
2021/08/24 02:34:44;;;;;;;28.12;14.80;;;;;;;18.05;83.97;101195.28;1794633;79;21550;-61
2021/08/24 02:37:15;;;;;;;35.52;17.70;;;;;;;18.03;84.04;101194.53;1782678;80;21074;-61
2021/08/24 02:39:50;;;;;;;32.65;16.60;;;;;;;18.03;84.00;101195.86;1795195;79;21067;-61
2021/08/24 02:42:25;;;;;;;24.45;14.47;;;;;;;18.02;84.57;101190.17;1794650;79;21119;-61
2021/08/24 02:44:57;;;;;;;26.55;14.38;;;;;;;18.02;84.49;101196.83;1764108;80;21067;-61
2021/08/24 02:47:26;;;;;;;23.35;13.38;;;;;;;18.01;84.47;101200.92;1794960;79;21099;-61
2021/08/24 02:49:55;;;;;;;32.75;17.15;;;;;;;18.00;84.31;101204.06;1795220;80;21080;-61
2021/08/24 02:52:24;;;;;;;33.92;18.42;;;;;;;18.01;84.28;101207.09;1795034;80;21084;-61
2021/08/24 02:54:54;;;;;;;35.50;17.85;;;;;;;17.99;84.53;101205.00;1795111;80;21083;-61
2021/08/24 02:57:23;;;;;;;30.35;16.75;;;;;;;17.96;84.68;101201.67;1795078;80;21150;-61
2021/08/24 02:59:52;;;;;;;40.92;19.73;;;;;;;17.93;84.80;101204.07;1795129;80;21141;-61
2021/08/24 03:02:20;;;;;;;31.10;16.82;;;;;;;17.95;84.74;101211.48;1795090;80;21107;-61
2021/08/24 03:04:49;;;;;;;34.33;17.60;;;;;;;17.95;84.89;101212.81;1795065;80;21154;-61
2021/08/24 03:07:22;;;;;;;28.27;15.80;;;;;;;17.94;84.88;101213.30;1795023;79;21056;-61
2021/08/24 03:09:51;;;;;;;25.25;14.15;;;;;;;17.99;84.90;101217.48;1795303;80;21467;-61
2021/08/24 03:12:39;;;;;;;29.55;13.50;;;;;;;17.99;85.05;101220.98;1795206;80;21569;-61
2021/08/24 03:15:12;;;;;;;25.02;14.55;;;;;;;18.03;84.90;101226.50;1795052;80;21149;-61
2021/08/24 03:17:56;;;;;;;24.87;14.23;;;;;;;18.06;84.86;101229.47;1795286;79;21202;-62
2021/08/24 03:20:25;;;;;;;;;;;;;;;18.09;84.92;101231.92;1797750;79;21130;-61
2021/08/24 03:22:55;;;;;;;26.05;16.25;;;;;;;18.10;84.84;101219.84;1795179;80;20122;-61
2021/08/24 03:25:25;;;;;;;33.02;16.90;;;;;;;18.13;84.89;101228.98;1795238;80;21060;-61
2021/08/24 03:27:54;;;;;;;41.77;21.97;;;;;;;18.18;84.84;101232.67;1794972;80;21146;-61
2021/08/24 03:30:24;;;;;;;64.50;29.05;;;;;;;18.25;84.75;101238.00;1795283;80;21149;-61
2021/08/24 03:32:53;;;;;;;61.37;30.08;;;;;;;18.33;84.57;101228.17;1795176;80;21056;-61
2021/08/24 03:35:23;;;;;;;61.42;28.02;;;;;;;18.42;84.41;101228.91;1795115;80;21051;-61
2021/08/24 03:37:51;;;;;;;48.98;24.12;;;;;;;18.51;84.26;101225.66;1795128;80;21545;-60
2021/08/24 03:40:20;;;;;;;56.75;27.87;;;;;;;18.62;84.15;101220.96;1795079;80;21106;-61
2021/08/24 03:42:49;;;;;;;48.58;27.82;;;;;;;18.74;84.05;101220.66;1795112;80;21127;-61
2021/08/24 03:45:18;;;;;;;49.60;30.80;;;;;;;18.93;83.96;101227.48;1795126;80;21079;-61
2021/08/24 03:47:47;;;;;;;47.38;31.50;;;;;;;19.08;83.77;101226.44;1795080;80;21052;-61
2021/08/24 03:50:15;;;;;;;34.27;21.37;;;;;;;19.24;83.56;101227.12;1795070;80;21059;-61
2021/08/24 03:52:44;;;;;;;33.48;15.30;;;;;;;19.34;83.34;101230.01;1795110;80;21122;-61
2021/08/24 03:55:13;;;;;;;24.80;14.20;;;;;;;19.43;82.99;101234.72;1795044;80;21087;-61
2021/08/24 03:57:42;;;;;;;25.40;14.35;;;;;;;19.55;82.62;101238.38;1795095;80;21076;-60
2021/08/24 04:00:11;;;;;;;21.95;12.93;;;;;;;19.65;82.16;101238.09;1795116;80;21205;-61
2021/08/24 04:02:44;;;;;;;25.80;13.78;;;;;;;19.78;81.77;101242.63;1795233;80;21088;-61
2021/08/24 04:05:13;;;;;;;22.77;14.20;;;;;;;19.95;81.32;101238.28;1795084;80;21139;-61
2021/08/24 04:07:42;;;;;;;30.40;15.10;;;;;;;20.04;80.79;101236.78;1795016;80;21569;-61
2021/08/24 04:10:11;;;;;;;26.35;14.93;;;;;;;20.22;80.67;101235.46;1795208;80;21193;-61
2021/08/24 04:12:40;;;;;;;25.70;15.35;;;;;;;20.40;80.26;101235.95;1795082;80;21114;-61
2021/08/24 04:15:10;;;;;;;23.05;13.35;;;;;;;20.61;80.00;101234.89;1794966;80;21063;-61
2021/08/24 04:17:40;;;;;;;24.32;13.95;;;;;;;20.85;79.56;101238.06;1795101;80;21059;-60
2021/08/24 04:20:11;;;;;;;26.62;14.33;;;;;;;21.10;79.20;101235.75;1809279;79;21587;-61
2021/08/24 04:22:43;;;;;;;21.55;13.98;;;;;;;21.25;78.93;101234.19;1815239;79;21122;-61
2021/08/24 04:25:13;;;;;;;28.67;15.48;;;;;;;21.44;78.56;101222.94;1815146;79;21176;-61
2021/08/24 04:27:43;;;;;;;24.43;14.10;;;;;;;21.73;78.16;101231.42;1815217;79;21063;-61
2021/08/24 04:30:12;;;;;;;26.10;14.73;;;;;;;22.00;77.65;101227.52;1815366;79;21031;-61
2021/08/24 04:32:44;;;;;;;32.30;14.87;;;;;;;22.21;77.04;101233.85;1815061;79;21126;-62
2021/08/24 04:35:15;;;;;;;29.98;14.60;;;;;;;22.49;76.64;101234.33;1815159;79;21059;-61
2021/08/24 04:37:44;;;;;;;28.23;15.13;;;;;;;22.78;76.13;101231.05;1815226;79;21039;-61
2021/08/24 04:40:13;;;;;;;23.77;14.43;;;;;;;23.01;75.54;101234.02;1815219;79;21059;-61
2021/08/24 04:42:43;;;;;;;32.28;15.58;;;;;;;23.29;75.19;101242.47;1815152;79;21058;-61
2021/08/24 04:45:12;;;;;;;25.25;14.73;;;;;;;23.64;74.75;101235.41;1815078;79;21224;-62
2021/08/24 04:47:42;;;;;;;23.55;13.75;;;;;;;23.95;73.86;101233.27;1815411;79;21133;-61
2021/08/24 04:50:11;;;;;;;24.82;13.65;;;;;;;24.24;73.16;101233.37;1815245;79;21110;-61
2021/08/24 04:52:40;;;;;;;23.12;14.05;;;;;;;24.44;72.52;101234.28;1815242;79;21059;-61
2021/08/24 04:55:10;;;;;;;30.90;14.80;;;;;;;24.71;72.00;101241.70;1815103;79;21101;-61
2021/08/24 04:57:39;;;;;;;24.75;13.95;;;;;;;25.05;71.30;101249.40;1815037;79;21130;-61
2021/08/24 05:00:09;;;;;;;23.22;13.22;;;;;;;25.27;70.54;101246.94;1815168;79;21181;-62
2021/08/24 05:02:38;;;;;;;22.85;13.32;;;;;;;25.49;69.90;101242.20;1815229;79;21113;-61
2021/08/24 05:05:07;;;;;;;23.52;13.58;;;;;;;25.65;68.50;101241.61;1815141;79;21075;-61
2021/08/24 05:07:36;;;;;;;25.20;14.03;;;;;;;25.90;67.87;101238.27;1815145;79;21137;-61
2021/08/24 05:10:07;;;;;;;20.60;13.10;;;;;;;26.16;67.24;101238.45;1815029;79;21095;-61
2021/08/24 05:12:35;;;;;;;22.90;13.43;;;;;;;26.30;66.64;101237.13;1815131;79;21067;-62
2021/08/24 05:15:05;;;;;;;26.35;13.00;;;;;;;26.54;65.63;101235.67;1815090;79;21103;-61
2021/08/24 05:17:33;;;;;;;21.37;13.20;;;;;;;26.78;64.94;101233.75;1815115;79;21035;-61
2021/08/24 05:20:03;;;;;;;19.87;13.13;;;;;;;26.95;64.21;101234.27;1807636;79;21087;-61
2021/08/24 05:22:33;;;;;;;21.87;13.45;;;;;;;27.16;63.89;101234.44;1795023;80;21072;-61
2021/08/24 05:25:02;;;;;;;21.97;13.83;;;;;;;27.28;62.51;101231.88;1795029;80;21076;-61
2021/08/24 05:27:33;;;;;;;21.27;12.98;;;;;;;27.32;62.11;101230.55;1795087;80;21205;-61
2021/08/24 05:30:07;;;;;;;23.25;13.05;;;;;;;27.55;61.68;101236.78;1795058;80;21146;-61
2021/08/24 05:32:36;;;;;;;21.95;13.28;;;;;;;27.78;61.00;101235.75;1795132;80;21060;-61
2021/08/24 05:35:06;;;;;;;22.67;12.65;;;;;;;27.81;60.36;101226.45;1794878;80;21142;-62
2021/08/24 05:37:35;;;;;;;21.55;12.75;;;;;;;27.96;60.23;101234.36;1795001;80;21059;-62
2021/08/24 05:40:04;;;;;;;26.77;13.40;;;;;;;27.98;59.74;101235.53;1795052;80;21044;-61
2021/08/24 05:42:33;;;;;;;25.37;14.30;;;;;;;28.05;59.33;101233.39;1795051;80;21133;-61
2021/08/24 05:45:02;;;;;;;26.48;13.75;;;;;;;28.22;58.84;101228.88;1795036;80;21498;-61
2021/08/24 05:47:31;;;;;;;25.82;14.30;;;;;;;28.55;58.26;101232.20;1794945;80;21036;-62
2021/08/24 05:50:01;;;;;;;27.93;15.45;;;;;;;28.74;57.62;101234.63;1795033;80;21490;-61
2021/08/24 05:52:29;;;;;;;25.32;15.30;;;;;;;28.99;57.15;101234.12;1795150;80;21063;-61
2021/08/24 05:54:58;;;;;;;24.30;15.43;;;;;;;29.07;56.45;101234.14;1795020;80;21084;-61
2021/08/24 05:57:28;;;;;;;27.93;14.87;;;;;;;29.16;56.17;101233.67;1795157;80;21080;-61
2021/08/24 05:59:56;;;;;;;25.62;14.10;;;;;;;29.34;55.49;101229.91;1795109;80;21056;-62
2021/08/24 06:02:25;;;;;;;26.10;14.30;;;;;;;29.65;54.93;101234.94;1794981;80;21139;-61
2021/08/24 06:04:55;;;;;;;27.67;15.75;;;;;;;29.76;54.90;101236.47;1795089;80;21048;-61
2021/08/24 06:07:24;;;;;;;27.05;14.35;;;;;;;29.95;54.21;101228.42;1795023;80;21150;-61
2021/08/24 06:09:52;;;;;;;24.45;14.15;;;;;;;30.13;53.75;101226.83;1795047;80;21092;-61
2021/08/24 06:12:21;;;;;;;28.02;16.00;;;;;;;30.33;53.22;101228.63;1795012;80;21115;-61
2021/08/24 06:14:50;;;;;;;21.35;14.00;;;;;;;30.69;52.33;101228.09;1794920;80;21202;-61
2021/08/24 06:17:19;;;;;;;27.77;14.93;;;;;;;30.99;51.80;101232.31;1794998;80;21231;-61
2021/08/24 06:19:48;;;;;;;33.88;16.62;;;;;;;31.26;51.08;101238.19;1795027;80;21113;-61
2021/08/24 06:22:17;;;;;;;24.82;15.63;;;;;;;31.29;49.34;101235.94;1814792;78;21103;-61
2021/08/24 06:24:45;;;;;;;28.12;16.50;;;;;;;31.05;49.48;101235.65;1815171;79;21067;-61
2021/08/24 06:27:14;;;;;;;25.30;15.25;;;;;;;31.14;49.96;101245.43;1814966;79;21129;-61
2021/08/24 06:29:42;;;;;;;25.97;14.25;;;;;;;31.27;49.46;101237.17;1815069;79;21117;-61
2021/08/24 06:32:20;;;;;;;31.12;14.58;;;;;;;31.45;49.02;101234.95;1815131;79;21082;-61
2021/08/24 06:34:49;;;;;;;39.15;16.35;;;;;;;31.57;48.63;101236.72;1813704;79;21051;-61
2021/08/24 06:37:17;;;;;;;43.95;21.20;;;;;;;31.81;48.51;101234.23;1815052;79;21055;-61
2021/08/24 06:39:46;;;;;;;31.17;14.75;;;;;;;32.03;48.27;101230.28;1814937;79;21137;-62
2021/08/24 06:42:15;;;;;;;36.93;15.25;;;;;;;32.17;47.81;101229.42;1815147;79;21165;-61
2021/08/24 06:44:44;;;;;;;35.08;15.13;;;;;;;32.41;47.20;101227.40;1815036;79;21174;-61
2021/08/24 06:47:12;;;;;;;34.53;15.20;;;;;;;32.60;46.81;101229.52;1815040;79;21106;-61
2021/08/24 06:49:42;;;;;;;31.87;15.28;;;;;;;32.80;46.42;101228.88;1815051;79;21668;-61
2021/08/24 06:52:11;;;;;;;25.62;15.00;;;;;;;32.82;45.71;101228.16;1815062;79;21152;-62
2021/08/24 06:54:40;;;;;;;21.27;14.10;;;;;;;33.05;45.55;101231.53;1815294;79;21486;-61
2021/08/24 06:57:08;;;;;;;25.27;13.13;;;;;;;33.31;45.25;101231.96;1815145;79;21067;-61
2021/08/24 06:59:38;;;;;;;22.20;12.47;;;;;;;33.26;44.83;101231.20;1815139;79;21051;-61
2021/08/24 07:02:09;;;;;;;29.80;13.98;;;;;;;33.36;45.12;101231.69;1815338;79;21145;-61
2021/08/24 07:04:37;;;;;;;23.35;12.55;;;;;;;33.40;44.61;101226.17;1815027;79;21506;-62
2021/08/24 07:07:06;;;;;;;19.77;12.18;;;;;;;33.69;44.33;101220.70;1815187;79;21055;-61
2021/08/24 07:09:34;;;;;;;20.55;10.80;;;;;;;34.01;44.37;101225.50;1815128;79;21058;-61
2021/08/24 07:12:03;;;;;;;16.02;11.15;;;;;;;34.01;44.37;101225.50;1815160;79;21063;-61
2021/08/24 07:14:32;;;;;;;16.15;10.82;;;;;;;33.86;43.67;101227.52;1815121;79;21162;-61
2021/08/24 07:17:02;;;;;;;18.48;10.90;;;;;;;33.87;43.72;101224.28;1815092;79;21091;-62
2021/08/24 07:19:31;;;;;;;15.60;10.15;;;;;;;33.60;43.46;101225.45;1815098;79;21753;-61
2021/08/24 07:22:01;;;;;;;17.60;9.95;;;;;;;33.65;43.94;101225.73;1803987;79;21173;-61
2021/08/24 07:24:30;;;;;;;20.72;12.15;;;;;;;33.62;44.12;101220.63;1812557;79;21095;-61
2021/08/24 07:26:59;;;;;;;20.23;11.08;;;;;;;33.63;44.00;101223.16;1812605;79;21051;-61
2021/08/24 07:29:28;;;;;;;14.47;10.58;;;;;;;33.97;43.86;101219.27;1812696;79;21067;-61
2021/08/24 07:31:56;;;;;;;21.33;11.35;;;;;;;34.34;43.75;101222.06;1781732;80;21149;-62
2021/08/24 07:34:25;;;;;;;18.07;11.48;;;;;;;34.58;42.99;101220.68;1795141;80;21134;-61
2021/08/24 07:36:54;;;;;;;20.35;11.12;;;;;;;34.71;42.24;101212.19;1795057;80;21064;-61
2021/08/24 07:39:23;;;;;;;18.73;10.13;;;;;;;34.69;41.73;101219.23;1795201;80;21083;-61
2021/08/24 07:41:52;;;;;;;15.48;9.48;;;;;;;34.37;41.17;101223.56;1795080;80;21048;-61
2021/08/24 07:44:24;;;;;;;14.33;10.18;;;;;;;34.04;41.16;101202.39;1812469;79;21502;-61
2021/08/24 07:46:52;;;;;;;17.00;10.00;;;;;;;34.04;41.16;101202.39;1812702;77;21055;-62
2021/08/24 07:49:20;;;;;;;15.75;10.58;;;;;;;33.82;41.25;101207.95;1812602;79;21502;-61
2021/08/24 07:51:49;;;;;;;26.52;11.53;;;;;;;33.75;42.15;101211.70;1812575;79;21087;-61
2021/08/24 07:54:18;;;;;;;19.40;10.40;;;;;;;33.79;42.52;101217.94;1812691;79;21086;-62
2021/08/24 07:56:47;;;;;;;13.00;9.00;;;;;;;33.88;42.31;101213.66;1812447;79;21074;-62
2021/08/24 07:59:16;;;;;;;17.45;11.57;;;;;;;33.78;42.37;101212.14;1812700;79;21039;-61
2021/08/24 08:01:45;;;;;;;16.00;10.75;;;;;;;33.80;42.59;101211.94;1812546;79;21031;-61
2021/08/24 08:04:13;;;;;;;19.57;10.80;;;;;;;33.94;42.74;101203.27;1812573;79;21126;-61
2021/08/24 08:06:42;;;;;;;15.23;8.75;;;;;;;34.14;42.65;101205.59;1812623;79;21079;-61
2021/08/24 08:09:11;;;;;;;17.35;10.95;;;;;;;34.25;42.46;101201.96;1812584;79;21070;-62
2021/08/24 08:11:40;;;;;;;17.73;11.03;;;;;;;34.34;42.62;101193.36;1812570;79;21149;-61
2021/08/24 08:14:12;;;;;;;14.25;9.43;;;;;;;34.53;42.63;101196.34;1812593;79;21553;-61
2021/08/24 08:16:40;;;;;;;15.90;9.25;;;;;;;34.60;41.81;101195.33;1781513;80;21108;-61
2021/08/24 08:19:09;;;;;;;13.78;9.00;;;;;;;34.30;42.08;101194.00;1795237;80;21084;-61
2021/08/24 08:21:40;;;;;;;24.40;12.78;;;;;;;34.29;41.68;101203.23;1812054;79;21094;-61
2021/08/24 08:24:10;;;;;;;14.87;10.70;;;;;;;34.38;42.02;101201.48;1808004;79;21130;-61
2021/08/24 08:26:39;;;;;;;16.15;10.48;;;;;;;34.40;42.01;101199.92;1808022;79;21556;-61
2021/08/24 08:29:12;;;;;;;16.82;10.23;;;;;;;34.59;42.27;101192.80;1807994;79;21497;-61
2021/08/24 08:31:43;;;;;;;19.77;11.43;;;;;;;34.23;42.14;101203.53;1808026;79;21067;-61
2021/08/24 08:34:12;;;;;;;18.90;11.93;;;;;;;33.37;43.13;101200.63;1808097;79;21031;-62
2021/08/24 08:36:44;;;;;;;21.17;12.10;;;;;;;32.98;43.89;101204.72;1807967;79;21224;-61
2021/08/24 08:39:14;;;;;;;17.07;10.48;;;;;;;33.23;44.30;101202.94;1808252;79;21063;-61
2021/08/24 08:42:10;;;;;;;21.10;10.98;;;;;;;33.21;44.09;101209.13;1808218;79;21051;-61
2021/08/24 08:44:54;;;;;;;19.90;10.78;;;;;;;33.45;43.25;101203.20;1807735;79;21083;-62
2021/08/24 08:47:42;;;;;;;18.98;11.43;;;;;;;33.20;43.49;101199.23;1808087;79;21607;-61
2021/08/24 08:50:30;;;;;;;20.23;10.82;;;;;;;32.82;44.44;101199.53;1807308;79;21091;-61
2021/08/24 08:53:14;;;;;;;12.95;8.53;;;;;;;32.60;44.98;101199.53;1807958;79;21144;-62
2021/08/24 08:55:46;;;;;;;19.62;10.18;;;;;;;32.24;44.91;101194.93;1807722;79;21071;-61
2021/08/24 08:58:18;;;;;;;16.27;9.20;;;;;;;32.02;45.33;101198.09;1805121;79;21157;-61
2021/08/24 09:00:52;;;;;;;16.57;9.18;;;;;;;32.64;44.62;101187.19;1807904;79;21137;-61
2021/08/24 09:03:30;;;;;;;12.70;7.60;;;;;;;33.36;43.72;101191.28;1807982;79;21031;-62
2021/08/24 09:05:59;;;;;;;11.50;6.92;;;;;;;33.74;42.30;101184.92;1806760;79;21586;-62
2021/08/24 09:08:30;;;;;;;14.65;7.08;;;;;;;33.91;41.55;101187.31;1808012;79;21510;-61
2021/08/24 09:11:00;;;;;;;11.70;7.22;;;;;;;33.87;41.45;101181.95;1808097;79;21027;-61
2021/08/24 09:13:37;;;;;;;10.40;6.90;;;;;;;33.96;41.19;101179.36;1807932;79;21564;-61
2021/08/24 09:16:24;;;;;;;10.93;6.33;;;;;;;34.06;41.00;101175.70;1807704;79;21562;-61
2021/08/24 09:18:59;;;;;;;9.60;5.45;;;;;;;34.16;41.00;101172.07;1807794;79;21474;-61
2021/08/24 09:21:39;;;;;;;7.67;5.53;;;;;;;34.27;40.21;101167.93;1808108;79;21071;-61
2021/08/24 09:24:16;;;;;;;10.50;7.45;;;;;;;34.13;40.09;101182.03;1808020;77;21099;-61
2021/08/24 09:27:04;;;;;;;10.50;6.67;;;;;;;34.15;40.38;101176.37;1808102;79;21142;-62
2021/08/24 09:29:41;;;;;;;13.38;6.35;;;;;;;34.20;40.37;101174.73;1807780;79;21145;-61
2021/08/24 09:32:12;;;;;;;9.60;5.25;;;;;;;34.29;40.60;101164.97;1807080;79;21134;-61
2021/08/24 09:34:44;;;;;;;13.10;6.00;;;;;;;34.40;39.49;101170.69;1808012;79;21051;-62
2021/08/24 09:37:17;;;;;;;;;;;;;;;34.37;39.41;101171.63;1810638;79;21570;-61
2021/08/24 09:39:57;;;;;;;11.43;5.97;;;;;;;34.30;40.14;101169.40;1830885;78;20127;-61
2021/08/24 09:42:35;;;;;;;10.20;6.10;;;;;;;33.88;41.02;101169.95;1808090;79;21146;-61
2021/08/24 09:45:06;;;;;;;12.58;6.70;;;;;;;33.37;41.77;101173.34;1807163;79;21083;-62
2021/08/24 09:47:36;;;;;;;8.63;5.22;;;;;;;32.98;41.77;101173.34;1800480;79;21612;-61
2021/08/24 09:50:08;;;;;;;8.93;5.37;;;;;;;32.48;42.22;101173.78;1807988;79;21103;-61
2021/08/24 09:52:39;;;;;;;7.50;4.25;;;;;;;32.68;42.17;101165.34;1807143;79;21108;-61
2021/08/24 09:55:11;;;;;;;6.12;3.77;;;;;;;33.06;41.38;101162.80;1808082;79;21052;-61
2021/08/24 09:57:49;;;;;;;8.08;4.75;;;;;;;33.17;40.30;101171.84;1807891;79;21194;-62
2021/08/24 10:00:23;;;;;;;10.08;4.78;;;;;;;33.26;39.98;101161.63;1807752;79;21157;-61
2021/08/24 10:02:59;;;;;;;8.10;4.22;;;;;;;33.39;39.84;101169.05;1808077;79;21510;-61
2021/08/24 10:05:34;;;;;;;10.23;5.30;;;;;;;33.33;39.99;101158.42;1808075;79;21032;-61
2021/08/24 10:08:24;;;;;;;5.70;4.15;;;;;;;33.40;40.18;101163.90;1807297;79;21134;-62
2021/08/24 10:11:01;;;;;;;6.87;4.72;;;;;;;33.31;40.15;101161.88;1807883;79;21525;-61
2021/08/24 10:13:39;;;;;;;10.15;5.95;;;;;;;33.38;40.05;101161.36;1807127;79;21102;-61
2021/08/24 10:16:11;;;;;;;10.95;5.25;;;;;;;33.67;40.77;101150.45;1808006;79;21498;-61
2021/08/24 10:18:41;;;;;;;14.58;5.28;;;;;;;33.81;39.64;101149.47;1807965;79;21032;-62
2021/08/24 10:21:15;;;;;;;12.50;6.67;;;;;;;33.75;39.85;101150.26;1808056;79;21133;-61
2021/08/24 10:23:53;;;;;;;8.10;4.62;;;;;;;33.82;39.63;101157.43;1804439;79;21478;-61
2021/08/24 10:26:27;;;;;;;12.30;7.20;;;;;;;33.91;38.97;101143.61;1808055;79;21091;-61
2021/08/24 10:28:59;;;;;;;8.20;4.92;;;;;;;33.71;38.53;101146.26;1808015;79;21083;-62
2021/08/24 10:31:31;;;;;;;7.37;4.97;;;;;;;33.61;38.59;101141.14;1808350;79;21635;-62
2021/08/24 10:34:02;;;;;;;9.47;3.73;;;;;;;33.41;38.19;101152.78;1808348;79;21031;-61
2021/08/24 10:36:43;;;;;;;7.60;4.50;;;;;;;33.41;38.19;101152.78;1807857;79;21595;-61
2021/08/24 10:39:29;;;;;;;8.73;5.50;;;;;;;33.17;38.45;101139.63;1808057;79;21447;-61
2021/08/24 10:42:19;;;;;;;7.78;4.92;;;;;;;32.97;38.84;101144.91;1808059;79;21121;-61
2021/08/24 10:44:57;;;;;;;12.30;5.53;;;;;;;32.79;39.12;101146.74;1779060;81;21554;-60
2021/08/24 10:47:34;;;;;;;9.73;4.97;;;;;;;32.77;39.21;101139.28;1779078;81;21106;-61
2021/08/24 10:50:03;;;;;;;9.73;5.40;;;;;;;32.76;39.21;101143.03;1778975;80;21529;-61
2021/08/24 10:53:01;;;;;;;13.60;5.25;;;;;;;32.62;39.59;101133.38;1779256;81;21087;-61
2021/08/24 10:55:33;;;;;;;7.60;4.58;;;;;;;32.60;40.04;101132.74;1779137;80;21071;-61
2021/08/24 10:58:07;;;;;;;9.03;4.37;;;;;;;32.50;39.27;101133.58;1778036;80;21182;-61
2021/08/24 11:00:39;;;;;;;9.60;5.75;;;;;;;32.40;39.44;101138.49;1778932;80;21099;-61
2021/08/24 11:03:19;;;;;;;10.30;4.87;;;;;;;32.29;39.87;101127.59;1779314;81;21070;-61
2021/08/24 11:06:12;;;;;;;19.07;5.47;;;;;;;32.23;39.60;101129.73;1779172;81;21062;-61
2021/08/24 11:08:59;;;;;;;7.70;3.60;;;;;;;32.16;39.85;101126.92;1779126;81;21575;-61
2021/08/24 11:11:33;;;;;;;7.33;4.45;;;;;;;31.98;39.11;101131.92;1765457;80;21074;-61
2021/08/24 11:14:13;;;;;;;7.00;4.00;;;;;;;31.83;39.97;101127.34;1779071;81;21556;-61
2021/08/24 11:16:48;;;;;;;7.97;4.95;;;;;;;31.63;40.38;101133.06;1779073;81;21137;-61
2021/08/24 11:19:53;;;;;;;6.15;4.45;;;;;;;31.40;41.10;101121.74;1778977;80;21153;-61
2021/08/24 11:22:27;;;;;;;7.10;4.12;;;;;;;31.21;40.86;101118.20;1779062;81;21051;-61
2021/08/24 11:25:11;;;;;;;7.30;3.87;;;;;;;31.00;41.66;101125.22;1778856;80;21171;-61
2021/08/24 11:27:48;;;;;;;7.53;4.30;;;;;;;30.88;42.02;101122.09;1779030;81;21553;-61
2021/08/24 11:30:29;;;;;;;8.80;4.25;;;;;;;30.71;41.88;101114.59;1779177;81;21518;-61
2021/08/24 11:33:12;;;;;;;5.62;4.10;;;;;;;30.58;43.01;101106.20;1779067;81;21144;-61
2021/08/24 11:35:56;;;;;;;6.12;4.17;;;;;;;30.53;43.31;101107.28;1779078;81;21179;-61
2021/08/24 11:38:28;;;;;;;5.78;4.62;;;;;;;30.47;43.93;101114.78;1779086;80;21047;-61
2021/08/24 11:41:02;;;;;;;8.88;4.05;;;;;;;30.33;44.21;101109.11;1778135;80;21075;-61